Time;durP1;ratioP1;P1;durP2;ratioP2;P2;SDS_P1;SDS_P2;PMS_P1;PMS_P2;Temp;Humidity;BMP_temperature;BMP_pressure;BME280_temperature;BME280_humidity;BME280_pressure;Samples;Min_cycle;Max_cycle;Signal;HPM_P1;HPM_P2
2023/01/05 00:02:06;;;;;;;27.73;9.85;;;;;;;-0.92;100.00;101501.23;1720601;81;20988;-86
2023/01/05 00:04:32;;;;;;;30.55;11.50;;;;;;;-0.87;100.00;101491.00;1723195;80;21015;-86
2023/01/05 00:06:59;;;;;;;30.82;11.53;;;;;;;-0.81;100.00;101487.70;1735523;82;21027;-86
2023/01/05 00:09:25;;;;;;;28.73;11.05;;;;;;;-0.75;100.00;101486.23;1719877;81;20992;-87
2023/01/05 00:23:02;;;;;;;29.05;10.60;;;;;;;-0.52;100.00;101468.71;1746210;81;21000;-86
2023/01/05 00:25:33;;;;;;;28.62;11.30;;;;;;;-0.51;100.00;101458.44;1727533;81;21650;-86
2023/01/05 00:31:27;;;;;;;30.57;11.03;;;;;;;-0.51;100.00;101442.56;1739370;81;21074;-86
2023/01/05 00:33:53;;;;;;;29.67;11.25;;;;;;;-0.52;100.00;101434.30;1717021;82;21012;-86
2023/01/05 00:36:19;;;;;;;31.85;11.30;;;;;;;-0.53;100.00;101431.33;1716168;82;20999;-93
2023/01/05 00:38:46;;;;;;;33.38;11.22;;;;;;;-0.50;100.00;101434.97;1714546;81;21144;-86
2023/01/05 00:41:12;;;;;;;29.70;10.93;;;;;;;-0.48;100.00;101432.14;1725909;80;21133;-86
2023/01/05 00:43:38;;;;;;;29.20;10.55;;;;;;;-0.48;100.00;101438.25;1715663;81;21078;-86
2023/01/05 00:46:05;;;;;;;24.10;9.70;;;;;;;-0.49;100.00;101440.58;1718591;81;21074;-86
2023/01/05 00:48:31;;;;;;;26.70;11.25;;;;;;;-0.50;100.00;101441.59;1716908;81;21611;-84
2023/01/05 00:50:57;;;;;;;29.45;10.80;;;;;;;-0.49;100.00;101433.96;1692989;81;21677;-86
2023/01/05 00:53:23;;;;;;;31.40;10.35;;;;;;;-0.47;100.00;101431.16;1718415;82;21544;-86
2023/01/05 00:55:58;;;;;;;27.60;10.85;;;;;;;-0.45;100.00;101419.89;1721446;81;21656;-86
2023/01/05 00:58:24;;;;;;;27.85;10.45;;;;;;;-0.46;100.00;101415.59;1680736;84;21044;-86
2023/01/05 01:00:50;;;;;;;26.77;10.23;;;;;;;-0.47;100.00;101417.93;1682750;84;21042;-87
2023/01/05 01:03:16;;;;;;;29.00;11.05;;;;;;;-0.44;100.00;101414.09;1684540;84;21153;-86
2023/01/05 01:05:43;;;;;;;30.32;11.78;;;;;;;-0.40;100.00;101421.55;1682905;84;21015;-86
2023/01/05 01:08:09;;;;;;;28.47;11.15;;;;;;;-0.37;100.00;101422.53;1684643;84;21102;-86
2023/01/05 01:10:39;;;;;;;28.40;11.97;;;;;;;-0.34;100.00;101414.26;1683764;84;21042;-86
2023/01/05 01:13:05;;;;;;;28.35;10.63;;;;;;;-0.29;100.00;101407.14;1680704;84;21090;-85
2023/01/05 01:15:32;;;;;;;31.07;12.00;;;;;;;-0.26;100.00;101401.52;1682853;84;21227;-87
2023/01/05 01:17:58;;;;;;;29.85;11.73;;;;;;;-0.24;100.00;101388.44;1679924;84;21043;-86
2023/01/05 01:20:24;;;;;;;27.00;11.85;;;;;;;-0.20;100.00;101375.67;1681965;84;21101;-86
2023/01/05 01:22:50;;;;;;;36.35;12.25;;;;;;;-0.17;100.00;101385.11;1678634;85;21059;-87
2023/01/05 01:25:17;;;;;;;32.60;11.83;;;;;;;-0.16;100.00;101390.72;1677845;85;21055;-86
2023/01/05 01:27:43;;;;;;;33.38;11.83;;;;;;;-0.18;100.00;101387.41;1678546;85;21743;-86
2023/01/05 01:30:11;;;;;;;38.33;12.65;;;;;;;-0.19;100.00;101374.66;1681220;84;21050;-86
2023/01/05 01:32:37;;;;;;;34.43;12.95;;;;;;;-0.18;100.00;101368.36;1680563;84;21098;-86
2023/01/05 01:35:03;;;;;;;43.73;14.18;;;;;;;-0.19;100.00;101358.77;1682051;84;21044;-85
2023/01/05 01:37:30;;;;;;;33.30;11.85;;;;;;;-0.20;100.00;101354.48;1683056;84;21597;-86
2023/01/05 01:39:56;;;;;;;30.72;11.88;;;;;;;-0.20;100.00;101349.19;1680655;84;21792;-86
2023/01/05 01:42:22;;;;;;;30.37;11.48;;;;;;;-0.20;100.00;101351.83;1680844;84;21650;-86
2023/01/05 01:45:05;;;;;;;37.30;12.45;;;;;;;-0.20;100.00;101347.04;1682445;84;21523;-86
2023/01/05 01:47:48;;;;;;;29.10;12.30;;;;;;;-0.21;100.00;101344.87;1590166;86;21685;-86
2023/01/05 01:50:26;;;;;;;33.80;12.40;;;;;;;-0.24;100.00;101337.27;1605948;88;21069;-86
2023/01/05 01:52:57;;;;;;;32.13;11.70;;;;;;;-0.25;100.00;101318.41;1588396;89;21271;-87
2023/01/05 01:55:25;;;;;;;36.90;13.58;;;;;;;-0.24;100.00;101297.53;1596022;88;21074;-86
2023/01/05 02:01:33;;;;;;;39.50;12.60;;;;;;;-0.21;100.00;101291.08;1600426;88;21038;-87
2023/01/05 02:04:01;;;;;;;40.30;13.72;;;;;;;-0.22;100.00;101290.76;1597049;87;21145;-87
2023/01/05 02:06:27;;;;;;;36.93;13.22;;;;;;;-0.22;100.00;101300.84;1589181;88;21568;-86
2023/01/05 02:08:53;;;;;;;38.92;13.32;;;;;;;-0.20;100.00;101306.81;1595719;88;21053;-87
2023/01/05 02:11:43;;;;;;;43.23;13.25;;;;;;;-0.16;100.00;101306.78;1592347;88;21618;-92
2023/01/05 02:14:26;;;;;;;40.10;14.13;;;;;;;-0.11;100.00;101303.12;1553234;90;21192;-86
2023/01/05 02:17:28;;;;;;;36.98;12.78;;;;;;;-0.06;100.00;101303.92;1541391;91;21706;-87
2023/01/05 02:20:38;;;;;;;40.50;13.05;;;;;;;0.00;100.00;101300.61;1550492;92;21831;-85
2023/01/05 02:23:22;;;;;;;42.23;13.83;;;;;;;0.08;100.00;101289.12;1542896;92;21137;-85
2023/01/05 02:26:16;;;;;;;41.55;14.47;;;;;;;0.14;100.00;101285.27;1548244;92;21110;-86
2023/01/05 02:29:34;;;;;;;40.38;13.40;;;;;;;0.18;100.00;101281.80;1550691;92;21111;-86
2023/01/05 02:32:14;;;;;;;37.53;13.48;;;;;;;0.22;100.00;101273.81;1551905;91;21122;-86
2023/01/05 02:35:07;;;;;;;33.30;12.98;;;;;;;0.23;100.00;101271.48;1491381;95;21333;-87
2023/01/05 02:37:44;;;;;;;39.60;13.80;;;;;;;0.28;100.00;101270.97;1489286;94;21149;-84
2023/01/05 02:40:19;;;;;;;39.60;14.05;;;;;;;0.31;100.00;101260.02;1482127;96;21161;-87
2023/01/05 02:42:49;;;;;;;41.40;14.18;;;;;;;0.34;100.00;101257.00;1482307;95;21297;-86
2023/01/05 02:45:16;;;;;;;34.18;11.93;;;;;;;0.36;100.00;101263.78;1490829;94;21082;-86
2023/01/05 02:47:44;;;;;;;39.73;12.78;;;;;;;0.36;100.00;101261.64;1484935;94;21245;-86
2023/01/05 02:50:25;;;;;;;35.52;12.88;;;;;;;0.38;100.00;101259.14;1475639;96;21113;-87
2023/01/05 02:53:18;;;;;;;33.98;12.25;;;;;;;0.41;100.00;101244.20;1476500;96;21092;-87
2023/01/05 02:56:08;;;;;;;35.23;12.65;;;;;;;0.44;100.00;101239.88;1494544;94;21284;-86
2023/01/05 02:58:42;;;;;;;28.85;10.80;;;;;;;0.45;100.00;101244.16;1507074;95;21086;-86
2023/01/05 03:01:31;;;;;;;32.15;10.13;;;;;;;0.48;100.00;101236.87;1503673;94;21696;-86
2023/01/05 03:04:03;;;;;;;25.95;9.88;;;;;;;0.49;100.00;101233.20;1497613;95;21390;-86
2023/01/05 03:06:45;;;;;;;24.77;9.30;;;;;;;0.51;100.00;101226.72;1508721;94;21153;-85
2023/01/05 03:09:06;;;;;;;24.10;9.28;;;;;;;0.54;100.00;101223.72;1459998;97;21100;-86
2023/01/05 03:14:54;;;;;;;23.83;8.85;;;;;;;0.60;100.00;101211.06;1480212;94;21635;-86
2023/01/05 03:17:44;;;;;;;22.55;8.70;;;;;;;0.60;100.00;101196.98;1476827;96;21127;-86
2023/01/05 03:20:14;;;;;;;22.42;8.48;;;;;;;0.61;100.00;101189.34;1485760;95;21106;-90
2023/01/05 03:37:06;;;;;;;28.33;8.83;;;;;;;0.66;100.00;101183.83;1558862;90;21610;-86
2023/01/05 03:39:35;;;;;;;27.98;9.18;;;;;;;0.68;100.00;101181.01;1568609;91;21135;-83
2023/01/05 03:42:01;;;;;;;22.10;8.70;;;;;;;0.68;100.00;101179.17;1549397;91;21294;-87
2023/01/05 03:44:28;;;;;;;24.25;8.10;;;;;;;0.70;100.00;101179.48;1614111;86;21120;-86
2023/01/05 03:46:55;;;;;;;22.05;8.38;;;;;;;0.73;100.00;101181.27;1605658;87;21022;-85
2023/01/05 03:49:21;;;;;;;22.60;8.58;;;;;;;0.74;100.00;101169.67;1605168;87;21594;-86
2023/01/05 03:51:47;;;;;;;25.75;8.18;;;;;;;0.77;100.00;101168.49;1638267;84;21559;-86
2023/01/05 03:54:13;;;;;;;22.87;8.38;;;;;;;0.78;100.00;101166.15;1667621;84;21516;-86
2023/01/05 03:56:40;;;;;;;19.17;7.80;;;;;;;0.80;100.00;101165.48;1658055;83;21515;-86
2023/01/05 03:59:06;;;;;;;19.75;8.83;;;;;;;0.81;100.00;101157.32;1666972;83;21047;-86
2023/01/05 04:01:32;;;;;;;23.10;7.60;;;;;;;0.81;100.00;101153.84;1679236;84;21112;-87
2023/01/05 04:03:58;;;;;;;22.65;7.87;;;;;;;0.82;100.00;101158.95;1681779;84;21072;-86
2023/01/05 04:06:25;;;;;;;22.07;7.42;;;;;;;0.82;100.00;101150.18;1679408;84;21239;-86
2023/01/05 04:12:19;;;;;;;18.05;7.42;;;;;;;0.84;100.00;101135.73;1657185;84;21169;-86
2023/01/05 04:14:45;;;;;;;19.73;7.37;;;;;;;0.85;100.00;101137.88;1711496;81;21015;-86
2023/01/05 04:17:12;;;;;;;18.90;7.53;;;;;;;0.83;100.00;101134.09;1718224;81;21114;-86
2023/01/05 04:19:38;;;;;;;22.82;7.50;;;;;;;0.83;100.00;101127.97;1745527;82;21224;-85
2023/01/05 04:22:04;;;;;;;21.55;8.05;;;;;;;0.80;100.00;101126.50;1713720;82;21075;-86
2023/01/05 04:24:30;;;;;;;19.60;7.42;;;;;;;0.79;100.00;101123.51;1727243;81;21077;-86
2023/01/05 04:26:57;;;;;;;20.43;7.28;;;;;;;0.77;100.00;101116.77;1744846;81;21035;-86
2023/01/05 04:29:23;;;;;;;17.00;6.90;;;;;;;0.75;100.00;101122.23;1725260;81;21014;-86
2023/01/05 04:31:49;;;;;;;21.57;8.03;;;;;;;0.74;100.00;101125.09;1743151;81;21040;-86
2023/01/05 04:34:15;;;;;;;16.60;6.70;;;;;;;0.71;100.00;101130.73;1740823;81;21090;-86
2023/01/05 04:36:42;;;;;;;16.85;6.85;;;;;;;0.70;100.00;101121.95;1719853;81;21055;-86
2023/01/05 04:39:08;;;;;;;19.00;7.00;;;;;;;0.70;100.00;101110.02;1726409;81;21068;-86
2023/01/05 04:41:34;;;;;;;16.23;6.55;;;;;;;0.71;100.00;101106.38;1735905;81;21054;-85
2023/01/05 04:44:00;;;;;;;20.05;7.08;;;;;;;0.71;100.00;101099.75;1743387;81;21071;-86
2023/01/05 04:46:26;;;;;;;16.80;7.40;;;;;;;0.67;100.00;101095.80;1743281;80;21023;-86
2023/01/05 04:48:53;;;;;;;18.25;7.12;;;;;;;0.67;100.00;101093.96;1703576;82;21046;-84
2023/01/05 04:51:19;;;;;;;17.17;7.55;;;;;;;0.66;100.00;101094.98;1734344;80;21079;-86
2023/01/05 04:53:45;;;;;;;20.92;7.30;;;;;;;0.64;100.00;101093.00;1745319;81;21165;-86
2023/01/05 04:56:11;;;;;;;21.65;7.92;;;;;;;0.63;100.00;101084.73;1719208;80;21149;-86
2023/01/05 04:58:39;;;;;;;19.73;7.95;;;;;;;0.62;100.00;101080.95;1707107;82;21081;-86
2023/01/05 05:01:06;;;;;;;20.08;7.53;;;;;;;0.62;100.00;101074.33;1744246;82;21658;-87
2023/01/05 05:07:13;;;;;;;20.12;6.87;;;;;;;0.64;100.00;101066.48;1723968;80;21104;-86
2023/01/05 05:09:39;;;;;;;18.75;6.80;;;;;;;0.67;100.00;101061.31;1725356;80;21272;-86
2023/01/05 05:12:06;;;;;;;21.07;7.03;;;;;;;0.71;100.00;101054.66;1734606;80;21555;-86
2023/01/05 05:14:32;;;;;;;20.52;8.00;;;;;;;0.76;100.00;101048.27;1734408;80;21233;-86
2023/01/05 05:16:58;;;;;;;21.75;8.63;;;;;;;0.81;100.00;101045.91;1719350;80;21081;-86
2023/01/05 05:19:25;;;;;;;23.05;9.33;;;;;;;0.84;100.00;101038.91;1721924;80;21057;-86
2023/01/05 05:21:51;;;;;;;24.70;9.08;;;;;;;0.85;100.00;101040.56;1721679;81;21079;-87
2023/01/05 05:24:17;;;;;;;27.60;9.55;;;;;;;0.89;100.00;101034.38;1720009;80;21067;-86
2023/01/05 05:26:43;;;;;;;28.32;9.35;;;;;;;0.91;100.00;101021.73;1714433;81;21062;-86
2023/01/05 05:29:09;;;;;;;23.25;8.45;;;;;;;0.92;100.00;101019.42;1718400;82;21085;-86
2023/01/05 05:31:36;;;;;;;28.40;9.10;;;;;;;0.96;100.00;101014.55;1703006;82;21111;-86
2023/01/05 05:34:02;;;;;;;26.65;8.90;;;;;;;1.00;100.00;101007.86;1730703;80;21225;-86
2023/01/05 05:36:28;;;;;;;24.85;8.70;;;;;;;1.02;100.00;101000.54;1715011;80;21060;-87
2023/01/05 05:38:55;;;;;;;34.20;10.30;;;;;;;1.05;100.00;100989.55;1723578;81;21129;-86
2023/01/05 05:45:02;;;;;;;27.17;10.58;;;;;;;1.12;100.00;100983.83;1712151;81;21093;-86
2023/01/05 05:47:29;;;;;;;23.90;9.28;;;;;;;1.15;100.00;100982.13;1730564;81;21136;-86
2023/01/05 05:49:55;;;;;;;22.10;9.15;;;;;;;1.20;100.00;100969.59;1725233;80;21089;-86
2023/01/05 05:52:21;;;;;;;21.82;8.25;;;;;;;1.23;100.00;100965.23;1714182;81;21642;-86
2023/01/05 05:54:47;;;;;;;22.20;8.80;;;;;;;1.23;100.00;100954.11;1725630;81;21663;-85
2023/01/05 05:57:14;;;;;;;19.75;6.85;;;;;;;1.26;100.00;100953.72;1712085;80;21567;-86
2023/01/05 05:59:40;;;;;;;15.75;5.72;;;;;;;1.30;100.00;100950.20;1727109;82;22021;-86
2023/01/05 06:02:06;;;;;;;13.50;5.15;;;;;;;1.32;100.00;100942.86;1719326;80;21016;-87
2023/01/05 06:04:32;;;;;;;12.53;4.70;;;;;;;1.35;100.00;100946.45;1746118;81;20988;-86
2023/01/05 06:06:58;;;;;;;14.95;5.12;;;;;;;1.34;100.00;100939.00;1724209;82;21595;-86
2023/01/05 06:09:25;;;;;;;15.03;4.47;;;;;;;1.39;100.00;100940.28;1727818;80;21551;-86
2023/01/05 06:11:51;;;;;;;9.70;4.20;;;;;;;1.42;100.00;100931.94;1735893;81;21569;-89
2023/01/05 06:14:18;;;;;;;12.88;4.92;;;;;;;1.46;100.00;100932.67;1739975;81;21154;-87
2023/01/05 06:16:44;;;;;;;12.58;5.15;;;;;;;1.52;100.00;100934.56;1735750;81;21441;-87
2023/01/05 06:19:11;;;;;;;13.88;4.97;;;;;;;1.58;100.00;100921.02;1736035;81;21509;-86
2023/01/05 06:21:37;;;;;;;13.43;4.65;;;;;;;1.64;100.00;100910.95;1737623;81;21293;-86
2023/01/05 06:24:04;;;;;;;12.53;4.83;;;;;;;1.68;100.00;100910.08;1738120;81;21333;-85
2023/01/05 06:26:30;;;;;;;12.35;4.08;;;;;;;1.72;100.00;100903.36;1703657;83;21067;-86
2023/01/05 06:28:56;;;;;;;12.37;4.37;;;;;;;1.77;100.00;100907.59;1717807;81;21071;-86
2023/01/05 06:35:04;;;;;;;9.08;3.72;;;;;;;1.84;100.00;100900.98;1735067;82;21009;-85
2023/01/05 06:37:30;;;;;;;8.75;3.98;;;;;;;1.88;100.00;100882.30;1740521;82;21137;-87
2023/01/05 06:39:56;;;;;;;8.65;3.47;;;;;;;1.89;100.00;100882.11;1746989;81;21038;-86
2023/01/05 06:42:22;;;;;;;10.72;4.05;;;;;;;1.92;100.00;100879.58;1748129;81;21011;-87
2023/01/05 06:44:49;;;;;;;12.30;4.75;;;;;;;1.95;100.00;100873.36;1746826;82;21062;-90
2023/01/05 06:47:15;;;;;;;12.45;5.10;;;;;;;1.98;100.00;100867.65;1726791;81;21064;-86
2023/01/05 06:49:41;;;;;;;15.35;4.55;;;;;;;2.03;100.00;100863.90;1726342;80;21310;-88
2023/01/05 06:52:08;;;;;;;10.15;4.30;;;;;;;2.07;100.00;100855.02;1720565;81;21012;-89
2023/01/05 06:54:35;;;;;;;12.82;4.35;;;;;;;2.12;100.00;100851.27;1723234;81;21019;-90
2023/01/05 07:00:41;;;;;;;12.75;3.87;;;;;;;2.22;100.00;100845.05;1746497;81;21107;-86
2023/01/05 07:03:12;;;;;;;14.15;4.50;;;;;;;2.34;100.00;100839.17;1719045;81;21211;-89
2023/01/05 07:05:39;;;;;;;14.73;4.78;;;;;;;2.39;100.00;100830.09;1719579;81;21718;-88
2023/01/05 07:08:05;;;;;;;16.52;4.30;;;;;;;2.48;100.00;100823.05;1723594;81;21028;-90
2023/01/05 07:10:32;;;;;;;13.93;4.40;;;;;;;2.56;100.00;100822.55;1739948;81;21142;-89
2023/01/05 07:12:58;;;;;;;13.25;4.47;;;;;;;2.66;100.00;100823.81;1722525;80;21098;-89
2023/01/05 07:15:24;;;;;;;14.70;5.03;;;;;;;2.77;100.00;100813.09;1747930;81;21511;-90
2023/01/05 07:17:50;;;;;;;14.95;5.17;;;;;;;2.83;100.00;100807.47;1713186;81;21017;-90
2023/01/05 07:20:17;;;;;;;10.68;4.62;;;;;;;2.93;100.00;100794.56;1725145;81;21050;-90
2023/01/05 07:22:43;;;;;;;10.45;4.15;;;;;;;3.11;100.00;100788.10;1726116;81;21099;-90
2023/01/05 07:25:10;;;;;;;11.10;4.35;;;;;;;3.34;100.00;100782.34;1696569;81;21074;-90
2023/01/05 07:27:36;;;;;;;13.28;5.05;;;;;;;3.55;100.00;100786.61;1710850;81;21476;-91
2023/01/05 07:30:04;;;;;;;11.48;4.45;;;;;;;3.74;100.00;100791.59;1710193;82;21023;-91
2023/01/05 07:32:30;;;;;;;15.28;5.00;;;;;;;3.83;100.00;100795.66;1734266;82;21055;-90
2023/01/05 07:34:56;;;;;;;11.55;4.33;;;;;;;3.83;100.00;100776.19;1733263;81;20988;-90
2023/01/05 07:37:23;;;;;;;12.20;4.33;;;;;;;3.82;100.00;100779.37;1723819;81;21473;-89
2023/01/05 07:39:50;;;;;;;12.70;4.62;;;;;;;3.83;100.00;100769.01;1738652;81;21173;-91
2023/01/05 07:42:16;;;;;;;11.88;4.35;;;;;;;3.83;100.00;100765.01;1717560;81;20982;-91
2023/01/05 07:44:42;;;;;;;13.08;4.42;;;;;;;3.86;100.00;100755.78;1733372;82;21076;-91
2023/01/05 07:47:08;;;;;;;11.68;4.53;;;;;;;3.85;100.00;100752.78;1711399;81;20996;-91
2023/01/05 07:53:15;;;;;;;13.88;5.30;;;;;;;3.87;100.00;100746.22;1724803;82;21127;-92
2023/01/05 07:55:42;;;;;;;12.80;4.95;;;;;;;3.96;100.00;100716.66;1733346;80;21004;-91
2023/01/05 08:01:49;;;;;;;12.33;5.28;;;;;;;3.99;100.00;100709.56;1710971;81;21492;-92
2023/01/05 08:04:15;;;;;;;13.95;4.70;;;;;;;3.95;100.00;100711.03;1738538;81;21008;-91
2023/01/05 08:06:42;;;;;;;18.02;5.95;;;;;;;3.94;100.00;100704.89;1693171;82;21553;-90
2023/01/05 08:11:52;;;;;;;15.50;6.37;;;;;;;3.94;100.00;100694.22;1728991;81;21075;-93
2023/01/05 08:14:19;;;;;;;15.40;5.97;;;;;;;3.87;100.00;100693.42;1738110;81;21472;-92
2023/01/05 08:16:45;;;;;;;18.77;7.05;;;;;;;3.89;100.00;100694.04;1733048;81;21082;-92
2023/01/05 08:19:11;;;;;;;19.60;6.80;;;;;;;3.92;100.00;100676.28;1741031;81;21188;-92
2023/01/05 08:21:37;;;;;;;21.62;7.15;;;;;;;3.90;100.00;100674.34;1706385;82;20999;-93
2023/01/05 08:24:04;;;;;;;23.42;7.15;;;;;;;3.87;100.00;100666.25;1744778;81;20976;-93
2023/01/05 08:26:30;;;;;;;18.12;6.53;;;;;;;3.92;100.00;100672.80;1727502;81;20976;-93
2023/01/05 08:28:57;;;;;;;20.10;6.60;;;;;;;3.93;100.00;100667.77;1728140;81;21105;-94
2023/01/05 08:31:35;;;;;;;20.95;6.30;;;;;;;3.92;100.00;100632.81;1706646;82;21130;-94
2023/01/05 08:34:01;;;;;;;20.57;7.33;;;;;;;3.99;100.00;100632.24;1731283;80;21012;-92
2023/01/05 08:36:27;;;;;;;18.00;6.25;;;;;;;4.02;100.00;100627.81;1745386;81;21023;-93
2023/01/05 09:00:10;;;;;;;19.17;5.53;;;;;;;4.07;100.00;100548.80;1727949;80;21442;-94
2023/01/05 09:02:37;;;;;;;13.32;5.17;;;;;;;4.09;100.00;100536.61;1730753;81;21424;-94
2023/01/05 09:11:52;;;;;;;15.90;5.67;;;;;;;4.17;100.00;100511.48;1736233;80;21170;-94
2023/01/05 09:21:39;;;;;;;14.00;5.40;;;;;;;4.20;100.00;100491.86;1747759;81;21123;-93
2023/01/05 09:27:35;;;;;;;15.78;6.00;;;;;;;4.30;100.00;100477.52;1735981;81;21035;-92
2023/01/05 09:30:01;;;;;;;16.27;5.97;;;;;;;4.39;100.00;100466.03;1743823;81;22065;-95
2023/01/05 09:32:29;;;;;;;16.85;5.58;;;;;;;4.44;100.00;100460.85;1739685;82;21547;-94
2023/01/05 09:49:45;;;;;;;21.37;7.35;;;;;;;4.64;100.00;100411.23;1714927;81;21003;-95
2023/01/05 10:13:41;;;;;;;28.55;9.25;;;;;;;4.57;100.00;100328.31;1717233;82;21000;-93
2023/01/05 10:16:13;;;;;;;24.00;9.80;;;;;;;4.45;100.00;100331.73;1739323;82;20986;-91
2023/01/05 10:18:39;;;;;;;27.13;9.65;;;;;;;4.39;100.00;100324.64;1745503;81;21223;-93
2023/01/05 10:21:16;;;;;;;25.37;10.03;;;;;;;4.36;100.00;100325.09;1712282;82;21062;-91
2023/01/05 10:30:15;;;;;;;30.50;11.65;;;;;;;4.38;100.00;100304.32;1736706;82;21048;-93
2023/01/05 10:32:59;;;;;;;30.35;11.45;;;;;;;4.30;100.00;100300.13;1746019;81;21102;-93
2023/01/05 10:36:04;;;;;;;35.88;12.85;;;;;;;4.30;100.00;100291.32;1749794;81;21453;-95
2023/01/05 10:39:16;;;;;;;33.98;11.50;;;;;;;4.33;100.00;100289.53;1749065;81;21003;-96
2023/01/05 10:45:27;;;;;;;37.75;12.78;;;;;;;4.31;100.00;100276.94;1736633;80;21055;-96
2023/01/05 11:13:47;;;;;;;34.13;14.00;;;;;;;4.38;100.00;100214.95;1707431;81;20989;-94
2023/01/05 11:16:20;;;;;;;35.70;13.38;;;;;;;4.43;100.00;100199.61;1739666;80;21442;-94
2023/01/05 11:19:08;;;;;;;34.15;11.90;;;;;;;4.48;100.00;100202.41;1728076;81;21201;-95
2023/01/05 11:21:42;;;;;;;30.95;11.22;;;;;;;4.57;100.00;100197.56;1746019;82;21543;-93
2023/01/05 11:31:05;;;;;;;29.87;12.23;;;;;;;4.62;100.00;100188.31;1740125;81;21067;-91
2023/01/05 11:33:35;;;;;;;37.65;14.25;;;;;;;4.63;100.00;100168.09;1745228;81;21049;-93
2023/01/05 11:36:03;;;;;;;49.15;15.83;;;;;;;4.67;100.00;100167.09;1730948;81;20999;-95
2023/01/05 11:38:30;;;;;;;51.70;14.58;;;;;;;4.69;100.00;100151.14;1728244;81;21154;-92
2023/01/05 11:40:59;;;;;;;47.50;16.75;;;;;;;4.70;100.00;100146.09;1733316;82;21555;-91
2023/01/05 11:43:29;;;;;;;47.43;15.30;;;;;;;4.70;100.00;100147.42;1718777;81;21048;-92
2023/01/05 11:46:02;;;;;;;43.92;17.10;;;;;;;4.77;100.00;100148.13;1713864;81;21135;-91
2023/01/05 11:48:33;;;;;;;;;;;;;;;4.78;100.00;100140.41;1638119;84;21052;-92
2023/01/05 11:50:59;;;;;;;40.60;15.05;;;;;;;4.78;100.00;100144.41;1654685;86;21149;-92
2023/01/05 11:57:11;;;;;;;42.55;14.73;;;;;;;4.87;100.00;100138.20;1643169;85;21094;-92
2023/01/05 11:59:37;;;;;;;37.30;12.68;;;;;;;4.93;100.00;100129.78;1596816;87;21059;-92
2023/01/05 12:02:24;;;;;;;39.80;13.30;;;;;;;4.94;100.00;100114.04;1595603;88;21089;-92
2023/01/05 12:05:16;;;;;;;27.67;10.63;;;;;;;5.01;100.00;100119.55;1599942;88;21127;-92
2023/01/05 12:07:51;;;;;;;29.90;10.85;;;;;;;5.09;100.00;100117.05;1588333;88;21474;-89
2023/01/05 12:10:28;;;;;;;32.67;10.80;;;;;;;5.11;100.00;100099.45;1585926;88;21238;-90
2023/01/05 12:13:15;;;;;;;28.20;11.18;;;;;;;5.10;100.00;100079.95;1571931;90;21531;-88
2023/01/05 12:16:04;;;;;;;30.70;10.95;;;;;;;5.13;100.00;100082.67;1566019;89;21110;-92
2023/01/05 12:18:54;;;;;;;33.00;10.85;;;;;;;5.12;100.00;100070.38;1568015;91;21909;-93
2023/01/05 12:21:26;;;;;;;30.12;11.30;;;;;;;5.13;100.00;100064.78;1566541;91;21090;-91
2023/01/05 12:24:07;;;;;;;24.12;10.03;;;;;;;5.18;100.00;100058.22;1568060;91;21015;-91
2023/01/05 12:27:05;;;;;;;35.35;11.08;;;;;;;5.19;100.00;100047.00;1545476;91;21096;-86
2023/01/05 12:29:43;;;;;;;32.38;11.57;;;;;;;5.19;100.00;100040.33;1552906;91;21186;-88
2023/01/05 12:32:37;;;;;;;33.65;11.20;;;;;;;5.21;100.00;100046.25;1529270;92;21594;-89
2023/01/05 12:35:21;;;;;;;28.02;10.45;;;;;;;5.23;100.00;100041.45;1528433;92;21138;-86
2023/01/05 12:38:07;;;;;;;32.90;11.12;;;;;;;5.29;100.00;100041.03;1516565;91;21666;-89
2023/01/05 12:41:06;;;;;;;34.33;12.00;;;;;;;5.30;100.00;100037.33;1534084;92;21144;-86
2023/01/05 12:44:01;;;;;;;34.27;11.22;;;;;;;5.30;100.00;100030.13;1529041;92;21114;-92
2023/01/05 12:47:12;;;;;;;31.68;11.10;;;;;;;5.32;100.00;100013.31;1565778;90;21134;-88
2023/01/05 12:49:50;;;;;;;29.30;11.03;;;;;;;5.33;100.00;100013.61;1565044;91;21082;-88
2023/01/05 12:56:07;;;;;;;33.92;11.73;;;;;;;5.32;100.00;100010.64;1537895;92;21625;-88
2023/01/05 12:58:48;;;;;;;30.80;11.63;;;;;;;5.33;100.00;100008.80;1575123;90;21147;-85
2023/01/05 13:01:21;;;;;;;29.42;10.68;;;;;;;5.34;100.00;100002.40;1517309;92;21152;-85
2023/01/05 13:03:52;;;;;;;30.27;10.18;;;;;;;5.33;100.00;100008.27;1518209;93;21142;-87
2023/01/05 13:06:24;;;;;;;28.83;11.08;;;;;;;5.26;100.00;99989.42;1508484;93;21194;-87
2023/01/05 13:09:00;;;;;;;31.62;11.38;;;;;;;5.33;100.00;100001.59;1535052;90;21189;-87
2023/01/05 17:04:18;;;;;;;37.60;13.83;;;;;;;4.14;100.00;99727.98;1755380;80;21027;-84
2023/01/05 17:06:47;;;;;;;40.45;14.90;;;;;;;4.39;100.00;99720.45;1748511;80;21213;-84
2023/01/05 17:09:24;;;;;;;66.22;22.95;;;;;;;4.53;100.00;99726.30;1780369;80;20985;-85
2023/01/05 17:11:51;;;;;;;60.12;22.05;;;;;;;4.68;100.00;99719.06;1773520;80;20984;-82
2023/01/05 17:14:18;;;;;;;57.08;21.23;;;;;;;4.82;100.00;99718.19;1761023;80;21036;-85
2023/01/05 17:16:45;;;;;;;69.55;21.77;;;;;;;4.91;100.00;99713.56;1756075;80;21007;-85
2023/01/05 17:19:15;;;;;;;79.85;22.35;;;;;;;4.97;100.00;99709.91;1759989;80;21103;-86
2023/01/05 17:21:46;;;;;;;58.63;17.80;;;;;;;5.03;100.00;99704.12;1715202;82;21078;-83
2023/01/05 17:24:13;;;;;;;52.33;16.77;;;;;;;5.12;100.00;99709.84;1720653;82;21186;-84
2023/01/05 17:26:42;;;;;;;84.40;22.13;;;;;;;5.14;100.00;99712.53;1715479;82;21000;-88
2023/01/05 17:29:17;;;;;;;64.55;19.05;;;;;;;5.17;100.00;99697.34;1724024;82;21143;-91
2023/01/05 17:31:43;;;;;;;65.47;19.65;;;;;;;5.20;100.00;99700.86;1640287;85;21919;-85
2023/01/05 17:34:09;;;;;;;53.90;17.25;;;;;;;5.23;100.00;99697.73;1636511;85;21106;-85
2023/01/05 17:36:37;;;;;;;50.73;17.10;;;;;;;5.25;100.00;99694.80;1650843;85;21584;-86
2023/01/05 17:39:04;;;;;;;63.33;19.85;;;;;;;5.29;100.00;99695.10;1628729;85;21473;-86
2023/01/05 17:41:30;;;;;;;45.98;17.30;;;;;;;5.29;100.00;99695.91;1661615;86;21034;-86
2023/01/05 17:43:56;;;;;;;49.98;18.65;;;;;;;5.32;100.00;99692.73;1625311;85;21130;-92
2023/01/05 17:46:33;;;;;;;61.48;18.73;;;;;;;5.32;100.00;99688.73;1584082;88;21132;-87
2023/01/05 17:49:01;;;;;;;60.00;19.05;;;;;;;5.34;100.00;99683.95;1581857;88;21689;-86
2023/01/05 17:51:29;;;;;;;65.37;20.02;;;;;;;5.37;100.00;99686.67;1587128;88;21538;-86
2023/01/05 17:53:57;;;;;;;67.00;22.22;;;;;;;5.37;100.00;99686.13;1571064;89;21060;-87
2023/01/05 17:56:24;;;;;;;62.88;20.85;;;;;;;5.40;100.00;99682.97;1530663;92;21204;-87
2023/01/05 17:58:51;;;;;;;53.75;19.10;;;;;;;5.42;100.00;99683.53;1492997;93;21263;-84
2023/01/05 18:01:18;;;;;;;60.45;20.45;;;;;;;5.44;100.00;99686.77;1527525;92;21057;-86
2023/01/05 18:03:44;;;;;;;50.43;19.07;;;;;;;5.43;100.00;99683.00;1503729;93;21254;-86
2023/01/05 18:06:10;;;;;;;58.17;19.55;;;;;;;5.44;100.00;99673.41;1527397;92;21169;-88
2023/01/05 18:08:37;;;;;;;54.45;19.45;;;;;;;5.44;100.00;99670.74;1516203;93;21203;-86
2023/01/05 18:11:06;;;;;;;54.38;19.40;;;;;;;5.47;100.00;99673.42;1529569;92;21717;-86
2023/01/05 18:13:35;;;;;;;62.13;19.90;;;;;;;5.50;100.00;99674.28;1491204;94;21088;-87
2023/01/05 18:16:10;;;;;;;51.98;18.10;;;;;;;5.50;100.00;99670.28;1522436;92;21075;-87
2023/01/05 18:18:37;;;;;;;52.50;19.35;;;;;;;5.51;100.00;99671.08;1500954;93;21322;-87
2023/01/05 18:21:04;;;;;;;51.83;18.60;;;;;;;5.50;100.00;99661.43;1514438;92;21183;-88
2023/01/05 18:23:30;;;;;;;52.85;18.80;;;;;;;5.50;100.00;99670.28;1522417;92;21229;-88
2023/01/05 18:26:05;;;;;;;52.67;17.98;;;;;;;5.49;100.00;99669.98;1538028;92;21201;-87
2023/01/05 18:28:31;;;;;;;51.33;18.40;;;;;;;5.49;100.00;99667.31;1570687;87;21091;-87
2023/01/05 18:30:57;;;;;;;54.45;18.42;;;;;;;5.47;100.00;99673.42;1608472;87;21103;-89